Time;durP1;ratioP1;P1;durP2;ratioP2;P2;SDS_P1;SDS_P2;PMS_P1;PMS_P2;Temp;Humidity;BMP_temperature;BMP_pressure;BME280_temperature;BME280_humidity;BME280_pressure;Samples;Min_cycle;Max_cycle;Signal;HPM_P1;HPM_P2
2023/07/12 00:05:30;;;;;;;7.88;4.80;;;;;;;23.51;44.13;100380.63;15427248;28;20047;-51
2023/07/12 00:13:03;;;;;;;8.13;4.22;;;;;;;23.92;43.02;100382.50;15401379;28;20565;-51
2023/07/12 00:20:38;;;;;;;8.32;4.45;;;;;;;23.79;43.10;100367.75;15427421;28;20042;-45
2023/07/12 00:28:21;;;;;;;8.32;4.97;;;;;;;23.57;43.98;100360.22;15426385;28;20047;-48
2023/07/12 00:35:56;;;;;;;9.98;4.70;;;;;;;23.63;43.88;100345.28;15409717;28;20492;-50
2023/07/12 00:43:36;;;;;;;8.93;4.90;;;;;;;23.59;43.96;100325.09;15382494;28;20043;-47
2023/07/12 00:51:29;;;;;;;5.47;4.65;;;;;;;23.40;44.76;100297.84;15428217;28;20050;-44
2023/07/12 00:59:04;;;;;;;;;;;;;;;23.02;45.51;100275.38;15425812;28;20124;-54
2023/07/12 01:06:39;;;;;;;6.60;4.65;;;;;;;23.40;45.09;100269.66;15420131;28;19922;-46
2023/07/12 01:14:14;;;;;;;8.85;4.75;;;;;;;23.64;44.65;100250.22;15435743;28;20125;-45
2023/07/12 01:21:51;;;;;;;9.85;5.18;;;;;;;23.32;45.03;100232.06;15419131;28;20512;-46
2023/07/12 01:29:25;;;;;;;13.43;5.10;;;;;;;23.34;45.12;100211.44;15379798;28;20491;-50
2023/07/12 01:37:04;;;;;;;7.72;4.72;;;;;;;23.38;45.34;100201.50;15450551;28;20065;-51
2023/07/12 01:44:37;;;;;;;9.57;4.80;;;;;;;22.79;47.09;100195.06;15395584;28;20047;-50
2023/07/12 01:52:11;;;;;;;7.15;4.93;;;;;;;23.37;45.67;100186.19;15449475;28;20078;-45
2023/07/12 01:59:46;;;;;;;8.35;5.38;;;;;;;23.27;46.16;100167.25;15416641;28;20443;-45
2023/07/12 02:07:20;;;;;;;6.95;5.40;;;;;;;23.16;46.24;100143.94;15416396;28;20051;-45
2023/07/12 02:14:54;;;;;;;8.35;5.50;;;;;;;22.83;47.35;100135.88;15406602;28;20173;-48
2023/07/12 02:22:30;;;;;;;8.25;5.47;;;;;;;23.12;46.95;100121.84;15415373;28;20418;-46
2023/07/12 02:30:04;;;;;;;8.45;5.80;;;;;;;23.23;46.65;100114.22;15431888;28;20129;-47
2023/07/12 02:37:38;;;;;;;7.47;5.60;;;;;;;23.17;46.82;100110.78;15431802;28;20470;-48
2023/07/12 02:45:11;;;;;;;8.48;5.10;;;;;;;23.28;46.44;100091.38;15430636;28;20424;-47
2023/07/12 02:52:46;;;;;;;10.85;6.00;;;;;;;23.13;47.23;100139.09;15450551;28;20061;-47
2023/07/12 03:00:21;;;;;;;9.40;6.03;;;;;;;22.76;48.00;100140.16;15383645;28;20130;-51
2023/07/12 03:07:55;;;;;;;9.25;5.90;;;;;;;22.82;47.88;100128.78;15412210;28;20086;-47
2023/07/12 03:15:29;;;;;;;9.43;6.05;;;;;;;22.98;47.50;100125.72;15428728;28;20466;-44
2023/07/12 03:23:04;;;;;;;9.50;6.28;;;;;;;23.06;48.16;100119.53;15412661;28;20047;-44
2023/07/12 03:30:38;;;;;;;8.75;6.50;;;;;;;22.79;48.73;100102.03;15429217;28;20050;-47
2023/07/12 03:38:14;;;;;;;13.27;7.22;;;;;;;23.14;47.53;100111.41;15427423;28;20096;-50
2023/07/12 03:45:47;;;;;;;15.27;7.05;;;;;;;23.19;47.83;100099.53;15380024;28;20112;-44
2023/07/12 03:53:21;;;;;;;9.05;7.18;;;;;;;23.14;48.01;100091.44;15410277;28;20078;-46
2023/07/12 04:00:54;;;;;;;11.45;7.32;;;;;;;23.07;48.11;100105.53;15428338;28;20531;-48
2023/07/12 04:08:28;;;;;;;12.98;7.65;;;;;;;23.30;48.65;100097.34;15427740;28;20250;-44
2023/07/12 04:16:02;;;;;;;13.25;8.20;;;;;;;23.37;49.41;100092.25;15418411;28;20046;-45
2023/07/12 04:23:37;;;;;;;13.65;8.50;;;;;;;23.27;49.24;100082.34;15429284;28;20051;-45
2023/07/12 04:31:12;;;;;;;14.48;8.35;;;;;;;23.34;49.63;100074.50;15422142;28;20055;-46
2023/07/12 04:38:46;;;;;;;12.18;8.68;;;;;;;22.97;50.65;100094.00;15439383;28;20117;-45
2023/07/12 04:46:19;;;;;;;15.60;9.30;;;;;;;22.81;51.66;100113.50;15438317;28;20083;-51
2023/07/12 04:53:54;;;;;;;13.88;9.38;;;;;;;23.20;51.29;100114.03;15437300;28;20043;-47
2023/07/12 05:01:28;;;;;;;12.05;8.93;;;;;;;23.33;52.23;100119.44;15436776;28;20047;-46
2023/07/12 05:09:03;;;;;;;13.13;10.07;;;;;;;23.46;52.19;100120.50;15438207;28;20634;-47
2023/07/12 05:16:36;;;;;;;14.27;9.52;;;;;;;23.71;52.03;100123.75;15436133;28;20047;-45
2023/07/12 05:24:11;;;;;;;15.27;10.32;;;;;;;24.18;52.21;100136.75;15436087;28;20043;-46
2023/07/12 05:31:44;;;;;;;15.10;9.77;;;;;;;24.14;52.35;100146.72;15435387;28;20039;-53
2023/07/12 05:39:18;;;;;;;12.48;9.05;;;;;;;24.42;51.86;100165.75;15449523;28;20373;-51
2023/07/12 05:46:51;;;;;;;19.75;9.38;;;;;;;24.25;52.54;100182.94;15433686;28;20046;-45
2023/07/12 05:54:26;;;;;;;15.02;8.43;;;;;;;24.58;52.17;100182.63;15435422;28;20043;-47
2023/07/12 06:02:00;;;;;;;10.73;7.05;;;;;;;24.62;52.50;100200.88;15433246;28;20389;-47
2023/07/12 06:09:34;;;;;;;10.27;6.85;;;;;;;24.40;54.09;100209.97;15432770;28;20395;-47
2023/07/12 06:17:07;;;;;;;7.55;5.22;;;;;;;24.53;52.89;100212.91;15433080;28;20054;-49
2023/07/12 06:24:42;;;;;;;8.25;5.57;;;;;;;24.82;53.03;100221.44;15433452;28;20050;-45
2023/07/12 06:32:15;;;;;;;7.47;5.72;;;;;;;25.67;51.97;100223.84;15379670;28;20043;-51
2023/07/12 06:39:49;;;;;;;10.55;7.07;;;;;;;25.58;51.51;100234.84;15430923;28;20559;-47
2023/07/12 06:47:23;;;;;;;8.93;5.95;;;;;;;25.38;52.50;100235.47;15428350;28;20078;-48
2023/07/12 06:54:57;;;;;;;10.95;6.07;;;;;;;25.94;51.12;100233.72;15430266;28;20042;-43
2023/07/12 07:02:30;;;;;;;9.00;5.72;;;;;;;26.05;51.16;100254.25;15427763;28;20061;-47
2023/07/12 07:10:04;;;;;;;11.68;6.63;;;;;;;25.92;51.77;100280.78;15428484;28;20097;-46
2023/07/12 07:17:37;;;;;;;10.90;6.32;;;;;;;25.22;52.42;100298.31;15429121;28;20471;-49
2023/07/12 07:25:12;;;;;;;9.00;6.30;;;;;;;24.91;52.91;100318.38;15421420;28;20368;-49
2023/07/12 07:32:46;;;;;;;10.43;6.90;;;;;;;24.88;52.26;100340.16;15425623;28;20086;-47
2023/07/12 07:40:20;;;;;;;13.38;6.88;;;;;;;25.29;51.03;100347.31;15427419;28;20452;-52
2023/07/12 07:47:53;;;;;;;9.32;6.35;;;;;;;25.83;48.59;100334.16;15426153;28;20220;-47
2023/07/12 07:55:27;;;;;;;9.88;6.32;;;;;;;25.78;49.20;100340.63;15384507;28;20050;-47
2023/07/12 08:03:00;;;;;;;10.80;6.20;;;;;;;25.77;49.35;100351.97;15415014;28;20206;-46
2023/07/12 08:10:37;;;;;;;8.23;5.85;;;;;;;25.09;51.24;100360.47;15407262;28;20150;-48
2023/07/12 08:18:12;;;;;;;8.40;6.18;;;;;;;25.32;50.74;100377.69;15402900;28;20043;-43
2023/07/12 08:25:47;;;;;;;7.78;5.95;;;;;;;26.44;49.89;100368.81;15416746;28;20510;-47
2023/07/12 08:33:20;;;;;;;8.00;5.18;;;;;;;26.24;49.37;100363.13;15401996;28;20047;-44
2023/07/12 08:40:55;;;;;;;6.00;4.15;;;;;;;25.51;50.94;100385.69;15418399;28;20146;-47
2023/07/12 08:48:31;;;;;;;4.90;3.60;;;;;;;25.18;50.25;100386.06;15423572;28;20122;-44
2023/07/12 08:56:12;;;;;;;4.97;3.55;;;;;;;25.89;50.03;100382.38;15406378;28;20417;-44
2023/07/12 09:03:45;;;;;;;6.38;3.30;;;;;;;26.81;48.57;100385.75;15409987;28;20484;-46
2023/07/12 09:11:27;;;;;;;9.07;3.35;;;;;;;27.66;47.90;100398.72;15421551;28;20082;-48
2023/07/12 09:19:14;;;;;;;4.90;3.20;;;;;;;28.32;44.78;100404.44;15440745;28;20161;-49
2023/07/12 09:26:50;;;;;;;4.80;2.22;;;;;;;26.78;47.57;100404.88;15431419;28;20074;-46
2023/07/12 09:34:26;;;;;;;4.43;2.42;;;;;;;27.70;47.75;100389.44;15429752;28;20074;-53
2023/07/12 09:42:03;;;;;;;2.53;1.98;;;;;;;28.26;44.85;100400.28;15426381;28;20142;-44
2023/07/12 09:49:39;;;;;;;2.67;1.90;;;;;;;27.23;45.25;100430.03;15416627;28;20046;-55
2023/07/12 09:57:22;;;;;;;4.97;2.33;;;;;;;27.93;46.41;100428.59;15431675;28;20485;-49
2023/07/12 10:04:58;;;;;;;4.68;2.35;;;;;;;28.04;44.58;100445.56;15413866;28;20030;-48
2023/07/12 10:12:40;;;;;;;3.50;2.28;;;;;;;28.08;43.70;100432.72;15425484;28;20059;-46
2023/07/12 10:20:17;;;;;;;4.30;1.85;;;;;;;27.19;43.65;100454.72;15429717;28;20054;-54
2023/07/12 10:28:00;;;;;;;3.58;1.63;;;;;;;28.00;42.13;100452.09;15431467;28;20109;-52
2023/07/12 10:35:39;;;;;;;;;;;;;;;28.35;41.49;100460.94;15425403;28;20051;-51
2023/07/12 10:43:20;;;;;;;4.28;1.58;;;;;;;27.85;41.81;100462.56;15421624;28;20371;-50
2023/07/12 10:50:55;;;;;;;3.47;1.40;;;;;;;28.12;40.36;100477.81;15423975;28;20070;-51
2023/07/12 10:58:48;;;;;;;1.65;1.15;;;;;;;28.17;38.55;100479.56;15409346;28;20742;-47
2023/07/12 11:06:23;;;;;;;3.63;1.50;;;;;;;29.13;38.80;100477.63;15439218;23;20109;-52
2023/07/12 11:14:12;;;;;;;3.47;1.35;;;;;;;28.87;39.25;100480.66;15444642;28;20047;-55
2023/07/12 11:21:47;;;;;;;4.25;1.48;;;;;;;29.98;36.94;100468.63;15459175;28;20149;-54
2023/07/12 11:29:30;;;;;;;2.65;1.33;;;;;;;29.20;37.27;100480.66;15467648;28;20047;-52
2023/07/12 11:37:16;;;;;;;3.22;1.60;;;;;;;28.94;39.17;100480.09;15442325;28;20047;-53
2023/07/12 11:45:01;;;;;;;4.32;1.38;;;;;;;28.25;39.01;100469.59;15460359;28;20113;-52
2023/07/12 11:52:35;;;;;;;2.05;1.10;;;;;;;29.84;35.99;100465.41;15442949;28;20080;-52
2023/07/12 12:00:17;;;;;;;1.90;1.20;;;;;;;29.85;36.52;100480.88;15459013;28;20649;-47
2023/07/12 12:07:50;;;;;;;2.37;1.20;;;;;;;28.21;39.79;100494.31;15450832;28;20055;-47
2023/07/12 12:15:27;;;;;;;2.15;1.08;;;;;;;28.90;35.65;100492.97;15429345;28;20049;-48
2023/07/12 12:23:13;;;;;;;2.17;1.25;;;;;;;30.05;35.70;100497.69;15419715;28;20062;-53
2023/07/12 12:30:57;;;;;;;1.83;0.95;;;;;;;30.63;36.75;100490.75;15457840;28;20050;-50
2023/07/12 12:38:35;;;;;;;2.00;0.90;;;;;;;30.25;33.96;100496.75;15446790;28;20055;-50
2023/07/12 12:46:11;;;;;;;1.92;0.80;;;;;;;29.49;33.61;100495.47;15433379;28;20034;-45
2023/07/12 12:53:45;;;;;;;3.53;0.82;;;;;;;29.41;34.32;100518.47;15452976;28;20474;-49
2023/07/12 13:01:21;;;;;;;2.58;0.90;;;;;;;29.11;34.74;100515.06;15467402;28;20043;-51
2023/07/12 13:08:55;;;;;;;4.32;2.08;;;;;;;27.94;32.48;100520.47;15468459;28;20446;-48
2023/07/12 13:16:34;;;;;;;3.80;0.82;;;;;;;28.29;31.92;100528.53;15475661;28;20049;-47
2023/07/12 13:24:07;;;;;;;2.03;0.50;;;;;;;27.80;32.53;100528.97;15457456;28;20047;-49
2023/07/12 13:31:42;;;;;;;2.80;0.70;;;;;;;29.29;32.69;100522.03;15457206;28;20077;-51
2023/07/12 13:39:18;;;;;;;2.17;0.60;;;;;;;29.55;32.26;100534.78;15435665;28;20050;-52
2023/07/12 13:46:53;;;;;;;3.65;0.80;;;;;;;28.65;32.70;100519.69;15465414;28;20054;-50
2023/07/12 13:54:26;;;;;;;4.50;1.60;;;;;;;28.92;32.05;100541.22;15450012;28;20050;-52
2023/07/12 14:02:00;;;;;;;3.10;0.80;;;;;;;28.14;32.19;100543.72;15462526;28;20082;-51
2023/07/12 14:09:32;;;;;;;3.13;0.70;;;;;;;28.11;33.00;100536.09;15429148;28;20047;-48
2023/07/12 14:17:12;;;;;;;4.20;0.80;;;;;;;28.19;34.33;100536.03;15458635;28;20043;-54
2023/07/12 14:24:46;;;;;;;2.60;0.70;;;;;;;28.38;34.49;100543.91;15477350;28;20074;-49
2023/07/12 14:32:22;;;;;;;1.95;0.93;;;;;;;28.11;34.75;100550.69;15454368;28;20057;-51
2023/07/12 14:39:55;;;;;;;2.47;1.15;;;;;;;27.62;35.67;100547.47;15431420;28;20050;-52
2023/07/12 14:47:29;;;;;;;6.10;0.88;;;;;;;27.45;33.74;100559.34;15481079;28;20447;-47
2023/07/12 14:55:06;;;;;;;3.50;1.23;;;;;;;27.75;35.12;100547.66;15443172;28;20102;-52
2023/07/12 15:02:41;;;;;;;2.28;1.15;;;;;;;27.45;34.05;100542.00;15457520;28;20065;-49
2023/07/12 15:10:19;;;;;;;2.80;1.20;;;;;;;27.16;34.27;100551.00;15432968;28;20118;-51
2023/07/12 15:17:58;;;;;;;3.55;1.10;;;;;;;27.80;35.27;100559.31;15458850;28;20047;-49
2023/07/12 15:25:32;;;;;;;4.53;1.27;;;;;;;26.99;32.92;100565.56;15416582;28;20093;-50
2023/07/12 15:33:19;;;;;;;3.22;1.30;;;;;;;26.83;32.63;100564.44;15431733;28;20512;-49
2023/07/12 15:40:55;;;;;;;2.05;1.50;;;;;;;27.08;32.65;100562.81;15479113;28;20043;-47
2023/07/12 15:48:32;;;;;;;2.92;1.42;;;;;;;26.98;31.16;100554.88;15500245;28;20483;-48
2023/07/12 15:56:05;;;;;;;3.75;1.58;;;;;;;27.12;31.42;100563.81;15457766;28;20050;-52
2023/07/12 16:03:39;;;;;;;1.90;1.52;;;;;;;27.00;31.05;100574.63;15466871;28;20405;-54
2023/07/12 16:11:20;;;;;;;4.18;1.75;;;;;;;26.72;31.79;100572.22;15479005;28;20054;-48
2023/07/12 16:18:54;;;;;;;1.80;1.40;;;;;;;26.64;31.31;100568.31;15436525;28;20054;-56
2023/07/12 16:26:30;;;;;;;4.60;1.67;;;;;;;26.90;30.57;100567.50;15504266;28;20125;-52
2023/07/12 16:34:14;;;;;;;5.95;2.08;;;;;;;26.70;32.01;100557.94;15487402;28;20113;-48
2023/07/12 16:41:48;;;;;;;3.90;1.70;;;;;;;26.61;30.83;100582.72;15460371;28;20478;-49
2023/07/12 16:49:22;;;;;;;1.92;1.52;;;;;;;26.01;31.49;100590.78;15512899;28;20054;-50
2023/07/12 16:56:55;;;;;;;3.25;1.80;;;;;;;26.32;31.23;100604.50;15510083;28;20038;-50
2023/07/12 17:04:31;;;;;;;2.00;1.70;;;;;;;26.16;31.00;100610.44;15505211;23;20104;-49
2023/07/12 17:12:04;;;;;;;4.45;1.55;;;;;;;26.30;32.21;100606.72;15511470;28;20486;-47
2023/07/12 17:19:40;;;;;;;4.13;1.80;;;;;;;25.81;33.31;100611.41;15503748;28;20108;-44
2023/07/12 17:27:16;;;;;;;4.30;1.80;;;;;;;26.16;33.23;100615.94;15529717;28;20035;-47
2023/07/12 17:34:50;;;;;;;3.13;1.58;;;;;;;25.72;33.81;100636.06;15510635;28;20449;-44
2023/07/12 17:42:23;;;;;;;2.55;1.70;;;;;;;25.71;34.04;100637.19;15513977;28;20062;-47
2023/07/12 17:49:57;;;;;;;2.63;1.40;;;;;;;25.68;34.20;100638.63;15537341;28;20074;-45
2023/07/12 17:57:30;;;;;;;2.00;1.30;;;;;;;25.92;33.15;100646.53;15519387;28;20088;-44
2023/07/12 18:05:20;;;;;;;5.47;1.77;;;;;;;25.07;32.32;100653.84;15524749;28;20046;-50
2023/07/12 18:12:54;;;;;;;3.35;1.40;;;;;;;25.71;33.54;100659.19;15487259;28;20137;-44
2023/07/12 18:20:29;;;;;;;3.63;1.42;;;;;;;25.09;33.96;100659.84;15502168;28;20101;-53
2023/07/12 18:28:03;;;;;;;2.55;1.25;;;;;;;24.96;34.91;100666.16;15513916;28;20038;-45
2023/07/12 18:35:37;;;;;;;3.35;1.20;;;;;;;25.02;35.73;100664.09;15522253;28;20046;-50
2023/07/12 18:43:17;;;;;;;3.38;1.15;;;;;;;24.42;36.58;100676.06;15513639;28;20417;-52
2023/07/12 18:50:51;;;;;;;3.88;1.45;;;;;;;25.19;36.44;100667.84;15518420;28;20050;-47
2023/07/12 18:58:24;;;;;;;3.83;1.10;;;;;;;25.11;37.17;100676.00;15499400;28;20407;-45
2023/07/12 19:05:59;;;;;;;4.10;2.20;;;;;;;24.84;38.14;100671.34;15522678;28;20412;-51
2023/07/12 19:13:31;;;;;;;5.97;1.88;;;;;;;24.60;39.28;100669.66;15488507;28;20125;-52
2023/07/12 19:21:21;;;;;;;3.67;1.25;;;;;;;24.48;38.73;100665.78;15490597;28;20058;-48
2023/07/12 19:28:54;;;;;;;3.42;1.35;;;;;;;24.07;40.11;100650.91;15517566;28;20060;-48
2023/07/12 19:36:29;;;;;;;2.58;1.25;;;;;;;24.03;39.33;100658.13;15499042;28;20072;-45
2023/07/12 19:44:06;;;;;;;3.03;1.30;;;;;;;23.54;40.83;100644.97;15503960;28;20056;-49
2023/07/12 19:51:43;;;;;;;3.20;1.30;;;;;;;23.35;42.12;100662.25;15501915;28;20054;-45
2023/07/12 19:59:18;;;;;;;4.70;1.50;;;;;;;23.16;43.06;100672.38;15487717;28;20054;-48
2023/07/12 20:06:52;;;;;;;8.85;3.30;;;;;;;23.09;44.58;100677.44;15488037;28;20050;-45
2023/07/12 20:14:25;;;;;;;3.55;1.80;;;;;;;22.84;45.66;100694.97;15487545;28;20149;-45
2023/07/12 20:22:00;;;;;;;4.93;1.70;;;;;;;22.56;45.31;100686.53;15469590;28;20129;-46
2023/07/12 20:29:33;;;;;;;2.75;1.45;;;;;;;22.42;45.35;100691.09;15487019;28;20084;-46
2023/07/12 20:37:07;;;;;;;3.20;1.38;;;;;;;22.23;46.06;100712.91;15547188;28;20507;-48
2023/07/12 20:44:41;;;;;;;6.20;1.63;;;;;;;21.67;46.87;100712.53;15546667;28;20050;-44
2023/07/12 20:52:18;;;;;;;3.45;1.60;;;;;;;21.89;46.62;100729.31;15530707;28;20042;-48
2023/07/12 21:00:05;;;;;;;5.47;2.00;;;;;;;21.97;46.39;100742.38;15529216;28;20104;-44
2023/07/12 21:07:43;;;;;;;6.10;1.73;;;;;;;21.68;47.21;100757.88;15551028;28;20053;-50
2023/07/12 21:15:17;;;;;;;5.10;2.00;;;;;;;21.57;47.72;100765.34;15558043;28;20054;-46
2023/07/12 21:22:51;;;;;;;8.18;2.10;;;;;;;21.90;47.40;100763.72;15540035;28;20490;-45
2023/07/12 21:30:24;;;;;;;5.15;2.20;;;;;;;21.80;48.21;100788.41;15527105;28;20069;-45
2023/07/12 21:37:59;;;;;;;7.07;2.15;;;;;;;21.62;48.72;100803.53;15495981;28;20054;-51
2023/07/12 21:45:31;;;;;;;7.70;2.05;;;;;;;21.47;49.33;100823.56;15478105;28;20089;-45
2023/07/12 21:53:07;;;;;;;3.13;1.65;;;;;;;21.39;49.08;100816.75;15494555;28;20050;-45
2023/07/12 22:00:39;;;;;;;4.90;2.03;;;;;;;21.03;50.71;100821.53;15494294;28;20043;-47
2023/07/12 22:08:15;;;;;;;5.00;1.85;;;;;;;20.96;50.88;100820.19;15493619;28;20056;-48
2023/07/12 22:15:49;;;;;;;5.65;2.38;;;;;;;20.76;51.58;100823.78;15475704;28;20455;-49
2023/07/12 22:23:24;;;;;;;5.82;2.42;;;;;;;20.55;52.17;100807.44;15492675;28;20078;-45
2023/07/12 22:30:58;;;;;;;4.93;2.50;;;;;;;20.40;52.96;100799.25;15521163;28;20057;-46
2023/07/12 22:38:32;;;;;;;5.85;2.58;;;;;;;20.26;53.16;100823.53;15553111;28;20046;-47
2023/07/12 22:46:07;;;;;;;6.13;2.40;;;;;;;20.05;53.67;100830.91;15553192;28;20049;-44
2023/07/12 22:53:41;;;;;;;5.80;2.40;;;;;;;20.02;53.89;100836.06;15553532;28;20057;-47
2023/07/12 23:01:14;;;;;;;6.45;2.50;;;;;;;20.06;53.11;100846.16;15552140;28;20129;-53
2023/07/12 23:08:52;;;;;;;6.32;2.53;;;;;;;19.82;54.78;100843.13;15551611;28;20056;-45
2023/07/12 23:16:25;;;;;;;7.63;2.90;;;;;;;19.75;54.56;100820.75;15550408;28;20050;-45
2023/07/12 23:24:00;;;;;;;7.97;2.83;;;;;;;19.70;54.63;100826.19;15550478;28;20050;-44
2023/07/12 23:31:34;;;;;;;6.32;3.13;;;;;;;19.29;56.18;100850.53;15509447;28;20078;-47
2023/07/12 23:39:08;;;;;;;7.97;3.00;;;;;;;19.36;55.98;100869.34;15488766;28;20511;-48
2023/07/12 23:46:42;;;;;;;4.28;2.65;;;;;;;18.95;56.63;100871.03;15488408;28;20138;-48
2023/07/12 23:54:18;;;;;;;6.85;2.80;;;;;;;19.10;56.85;100874.66;15488003;28;20531;-50
